sensor_id;sensor_type;location;lat;lon;timestamp;P1;durP1;ratioP1;P2;durP2;ratioP2
4808;SDS011;2418;49.930;8.606;2023-02-28T00:00:06;1.70;;;1.70;;
4808;SDS011;2418;49.930;8.606;2023-02-28T00:02:35;1.73;;;1.73;;
4808;SDS011;2418;49.930;8.606;2023-02-28T00:05:03;1.40;;;1.40;;
4808;SDS011;2418;49.930;8.606;2023-02-28T00:07:30;1.70;;;1.60;;
4808;SDS011;2418;49.930;8.606;2023-02-28T00:09:56;1.97;;;1.87;;
4808;SDS011;2418;49.930;8.606;2023-02-28T00:12:22;1.40;;;1.40;;
4808;SDS011;2418;49.930;8.606;2023-02-28T00:14:49;1.80;;;1.80;;
4808;SDS011;2418;49.930;8.606;2023-02-28T00:17:15;1.70;;;1.70;;
4808;SDS011;2418;49.930;8.606;2023-02-28T00:19:43;1.73;;;1.60;;
4808;SDS011;2418;49.930;8.606;2023-02-28T00:22:09;2.15;;;2.00;;
4808;SDS011;2418;49.930;8.606;2023-02-28T00:24:34;1.93;;;1.83;;
4808;SDS011;2418;49.930;8.606;2023-02-28T00:27:00;1.80;;;1.60;;
4808;SDS011;2418;49.930;8.606;2023-02-28T00:29:27;1.90;;;1.90;;
4808;SDS011;2418;49.930;8.606;2023-02-28T00:31:52;1.77;;;1.77;;
4808;SDS011;2418;49.930;8.606;2023-02-28T00:34:18;2.20;;;2.10;;
4808;SDS011;2418;49.930;8.606;2023-02-28T00:36:44;1.77;;;1.75;;
4808;SDS011;2418;49.930;8.606;2023-02-28T00:39:13;1.55;;;1.55;;
4808;SDS011;2418;49.930;8.606;2023-02-28T00:41:39;2.40;;;2.30;;
4808;SDS011;2418;49.930;8.606;2023-02-28T00:44:05;2.10;;;2.00;;
4808;SDS011;2418;49.930;8.606;2023-02-28T00:46:31;2.00;;;2.00;;
4808;SDS011;2418;49.930;8.606;2023-02-28T00:48:56;2.40;;;2.20;;
4808;SDS011;2418;49.930;8.606;2023-02-28T00:51:22;1.87;;;1.80;;
4808;SDS011;2418;49.930;8.606;2023-02-28T00:53:48;2.07;;;2.07;;
4808;SDS011;2418;49.930;8.606;2023-02-28T00:56:14;2.47;;;1.90;;
4808;SDS011;2418;49.930;8.606;2023-02-28T00:58:40;1.98;;;1.88;;
4808;SDS011;2418;49.930;8.606;2023-02-28T01:01:07;2.47;;;2.37;;
4808;SDS011;2418;49.930;8.606;2023-02-28T01:03:33;3.00;;;2.80;;
4808;SDS011;2418;49.930;8.606;2023-02-28T01:05:58;2.42;;;2.22;;
4808;SDS011;2418;49.930;8.606;2023-02-28T01:08:24;2.27;;;2.20;;
4808;SDS011;2418;49.930;8.606;2023-02-28T01:10:51;2.13;;;2.13;;
4808;SDS011;2418;49.930;8.606;2023-02-28T01:13:17;2.38;;;2.28;;
4808;SDS011;2418;49.930;8.606;2023-02-28T01:15:46;2.28;;;2.28;;
4808;SDS011;2418;49.930;8.606;2023-02-28T01:18:13;2.40;;;2.30;;
4808;SDS011;2418;49.930;8.606;2023-02-28T01:20:40;2.20;;;2.10;;
4808;SDS011;2418;49.930;8.606;2023-02-28T01:23:06;2.72;;;2.58;;
4808;SDS011;2418;49.930;8.606;2023-02-28T01:25:33;2.75;;;2.65;;
4808;SDS011;2418;49.930;8.606;2023-02-28T01:28:00;2.90;;;2.70;;
4808;SDS011;2418;49.930;8.606;2023-02-28T01:30:26;2.97;;;2.78;;
4808;SDS011;2418;49.930;8.606;2023-02-28T01:32:52;2.40;;;2.37;;
4808;SDS011;2418;49.930;8.606;2023-02-28T01:35:18;2.70;;;2.60;;
4808;SDS011;2418;49.930;8.606;2023-02-28T01:37:44;2.90;;;2.80;;
4808;SDS011;2418;49.930;8.606;2023-02-28T01:40:10;5.40;;;3.10;;
4808;SDS011;2418;49.930;8.606;2023-02-28T01:42:36;2.70;;;2.60;;
4808;SDS011;2418;49.930;8.606;2023-02-28T01:45:18;2.47;;;2.38;;
4808;SDS011;2418;49.930;8.606;2023-02-28T01:47:46;2.60;;;2.50;;
4808;SDS011;2418;49.930;8.606;2023-02-28T01:50:14;3.00;;;2.70;;
4808;SDS011;2418;49.930;8.606;2023-02-28T01:52:42;2.70;;;2.60;;
4808;SDS011;2418;49.930;8.606;2023-02-28T01:55:08;3.10;;;3.00;;
4808;SDS011;2418;49.930;8.606;2023-02-28T01:57:38;2.93;;;2.80;;
4808;SDS011;2418;49.930;8.606;2023-02-28T02:00:06;3.15;;;2.95;;
4808;SDS011;2418;49.930;8.606;2023-02-28T02:02:34;3.37;;;3.07;;
4808;SDS011;2418;49.930;8.606;2023-02-28T02:05:05;3.17;;;2.88;;
4808;SDS011;2418;49.930;8.606;2023-02-28T02:07:34;3.50;;;3.20;;
4808;SDS011;2418;49.930;8.606;2023-02-28T02:10:10;3.45;;;3.25;;
4808;SDS011;2418;49.930;8.606;2023-02-28T02:15:22;3.47;;;3.28;;
4808;SDS011;2418;49.930;8.606;2023-02-28T02:18:18;3.70;;;3.50;;
4808;SDS011;2418;49.930;8.606;2023-02-28T02:23:20;3.90;;;3.80;;
4808;SDS011;2418;49.930;8.606;2023-02-28T02:26:02;3.25;;;3.15;;
4808;SDS011;2418;49.930;8.606;2023-02-28T02:39:51;3.80;;;3.60;;
4808;SDS011;2418;49.930;8.606;2023-02-28T02:42:21;3.53;;;3.30;;
4808;SDS011;2418;49.930;8.606;2023-02-28T02:45:00;3.80;;;3.50;;
4808;SDS011;2418;49.930;8.606;2023-02-28T02:47:28;3.90;;;3.70;;
4808;SDS011;2418;49.930;8.606;2023-02-28T02:49:55;4.40;;;4.10;;
4808;SDS011;2418;49.930;8.606;2023-02-28T02:52:26;3.60;;;3.50;;
4808;SDS011;2418;49.930;8.606;2023-02-28T02:54:59;4.30;;;4.00;;
4808;SDS011;2418;49.930;8.606;2023-02-28T02:57:28;4.00;;;3.90;;
4808;SDS011;2418;49.930;8.606;2023-02-28T02:59:55;4.38;;;4.18;;
4808;SDS011;2418;49.930;8.606;2023-02-28T03:02:23;4.22;;;3.90;;
4808;SDS011;2418;49.930;8.606;2023-02-28T03:04:56;4.80;;;4.50;;
4808;SDS011;2418;49.930;8.606;2023-02-28T03:07:25;4.57;;;4.27;;
4808;SDS011;2418;49.930;8.606;2023-02-28T03:09:52;4.85;;;4.57;;
4808;SDS011;2418;49.930;8.606;2023-02-28T03:12:19;5.28;;;4.78;;
4808;SDS011;2418;49.930;8.606;2023-02-28T03:14:49;4.53;;;4.18;;
4808;SDS011;2418;49.930;8.606;2023-02-28T03:22:46;4.50;;;4.10;;
4808;SDS011;2418;49.930;8.606;2023-02-28T03:28:15;4.03;;;3.92;;
4808;SDS011;2418;49.930;8.606;2023-02-28T03:30:56;4.40;;;4.20;;
4808;SDS011;2418;49.930;8.606;2023-02-28T03:33:25;4.53;;;4.32;;
4808;SDS011;2418;49.930;8.606;2023-02-28T03:35:59;4.32;;;4.13;;
4808;SDS011;2418;49.930;8.606;2023-02-28T03:38:31;4.70;;;4.40;;
4808;SDS011;2418;49.930;8.606;2023-02-28T03:41:13;4.90;;;4.60;;
4808;SDS011;2418;49.930;8.606;2023-02-28T03:43:56;4.38;;;4.18;;
4808;SDS011;2418;49.930;8.606;2023-02-28T03:46:24;4.45;;;4.15;;
4808;SDS011;2418;49.930;8.606;2023-02-28T03:49:04;4.85;;;4.55;;
4808;SDS011;2418;49.930;8.606;2023-02-28T03:51:31;4.03;;;3.92;;
4808;SDS011;2418;49.930;8.606;2023-02-28T03:53:59;4.32;;;4.20;;
4808;SDS011;2418;49.930;8.606;2023-02-28T03:56:34;5.07;;;4.88;;
4808;SDS011;2418;49.930;8.606;2023-02-28T03:59:20;4.47;;;4.28;;
4808;SDS011;2418;49.930;8.606;2023-02-28T04:01:48;4.80;;;4.60;;
4808;SDS011;2418;49.930;8.606;2023-02-28T04:04:15;4.60;;;4.50;;
4808;SDS011;2418;49.930;8.606;2023-02-28T04:06:41;4.70;;;4.40;;
4808;SDS011;2418;49.930;8.606;2023-02-28T04:09:08;3.80;;;3.70;;
4808;SDS011;2418;49.930;8.606;2023-02-28T04:14:04;4.60;;;4.40;;
4808;SDS011;2418;49.930;8.606;2023-02-28T04:16:31;4.20;;;4.00;;
4808;SDS011;2418;49.930;8.606;2023-02-28T04:18:58;3.92;;;3.83;;
4808;SDS011;2418;49.930;8.606;2023-02-28T04:21:27;4.35;;;4.15;;
4808;SDS011;2418;49.930;8.606;2023-02-28T04:23:54;4.10;;;3.80;;
4808;SDS011;2418;49.930;8.606;2023-02-28T04:26:20;4.50;;;4.20;;
4808;SDS011;2418;49.930;8.606;2023-02-28T04:28:46;4.10;;;4.00;;
4808;SDS011;2418;49.930;8.606;2023-02-28T04:31:12;4.10;;;3.90;;
4808;SDS011;2418;49.930;8.606;2023-02-28T04:33:38;4.30;;;4.10;;
4808;SDS011;2418;49.930;8.606;2023-02-28T04:36:04;3.93;;;3.67;;
4808;SDS011;2418;49.930;8.606;2023-02-28T04:38:33;4.20;;;4.00;;
4808;SDS011;2418;49.930;8.606;2023-02-28T04:41:00;4.23;;;4.03;;
4808;SDS011;2418;49.930;8.606;2023-02-28T04:43:27;4.10;;;3.90;;
4808;SDS011;2418;49.930;8.606;2023-02-28T04:45:54;4.00;;;3.70;;
4808;SDS011;2418;49.930;8.606;2023-02-28T04:48:27;5.15;;;4.65;;
4808;SDS011;2418;49.930;8.606;2023-02-28T04:50:53;4.07;;;3.88;;
4808;SDS011;2418;49.930;8.606;2023-02-28T04:53:19;4.15;;;3.95;;
4808;SDS011;2418;49.930;8.606;2023-02-28T04:55:45;4.13;;;3.72;;
4808;SDS011;2418;49.930;8.606;2023-02-28T04:58:12;4.00;;;3.90;;
4808;SDS011;2418;49.930;8.606;2023-02-28T05:00:38;4.00;;;3.80;;
4808;SDS011;2418;49.930;8.606;2023-02-28T05:03:04;3.35;;;3.25;;
4808;SDS011;2418;49.930;8.606;2023-02-28T05:05:30;3.40;;;3.30;;
4808;SDS011;2418;49.930;8.606;2023-02-28T05:07:55;3.70;;;3.60;;
4808;SDS011;2418;49.930;8.606;2023-02-28T05:10:21;4.20;;;4.00;;
4808;SDS011;2418;49.930;8.606;2023-02-28T05:12:47;3.92;;;3.63;;
4808;SDS011;2418;49.930;8.606;2023-02-28T05:15:13;4.57;;;4.20;;
4808;SDS011;2418;49.930;8.606;2023-02-28T05:17:40;4.07;;;3.97;;
4808;SDS011;2418;49.930;8.606;2023-02-28T05:20:06;4.10;;;3.90;;
4808;SDS011;2418;49.930;8.606;2023-02-28T05:22:35;4.10;;;3.90;;
4808;SDS011;2418;49.930;8.606;2023-02-28T05:25:01;3.65;;;3.45;;
4808;SDS011;2418;49.930;8.606;2023-02-28T05:27:27;4.30;;;4.10;;
4808;SDS011;2418;49.930;8.606;2023-02-28T05:29:53;4.80;;;4.50;;
4808;SDS011;2418;49.930;8.606;2023-02-28T05:32:19;3.92;;;3.83;;
4808;SDS011;2418;49.930;8.606;2023-02-28T05:34:45;4.17;;;3.77;;
4808;SDS011;2418;49.930;8.606;2023-02-28T05:37:12;3.90;;;3.60;;
4808;SDS011;2418;49.930;8.606;2023-02-28T05:39:38;3.70;;;3.60;;
4808;SDS011;2418;49.930;8.606;2023-02-28T05:42:04;3.70;;;3.50;;
4808;SDS011;2418;49.930;8.606;2023-02-28T05:44:30;3.90;;;3.75;;
4808;SDS011;2418;49.930;8.606;2023-02-28T05:46:56;4.32;;;3.75;;
4808;SDS011;2418;49.930;8.606;2023-02-28T05:49:22;3.90;;;3.80;;
4808;SDS011;2418;49.930;8.606;2023-02-28T05:51:48;9.20;;;3.90;;
4808;SDS011;2418;49.930;8.606;2023-02-28T05:54:14;5.10;;;4.20;;
4808;SDS011;2418;49.930;8.606;2023-02-28T05:56:40;4.60;;;4.20;;
4808;SDS011;2418;49.930;8.606;2023-02-28T05:59:08;4.75;;;4.25;;
4808;SDS011;2418;49.930;8.606;2023-02-28T06:01:38;4.55;;;4.32;;
4808;SDS011;2418;49.930;8.606;2023-02-28T06:04:06;6.30;;;4.10;;
4808;SDS011;2418;49.930;8.606;2023-02-28T06:06:33;3.95;;;3.80;;
4808;SDS011;2418;49.930;8.606;2023-02-28T06:08:59;4.43;;;4.13;;
4808;SDS011;2418;49.930;8.606;2023-02-28T06:11:25;4.03;;;3.85;;
4808;SDS011;2418;49.930;8.606;2023-02-28T06:13:58;4.65;;;4.25;;
4808;SDS011;2418;49.930;8.606;2023-02-28T06:16:26;3.97;;;3.78;;
4808;SDS011;2418;49.930;8.606;2023-02-28T06:18:52;4.20;;;3.90;;
4808;SDS011;2418;49.930;8.606;2023-02-28T06:21:21;4.50;;;4.15;;
4808;SDS011;2418;49.930;8.606;2023-02-28T06:23:47;3.72;;;3.53;;
4808;SDS011;2418;49.930;8.606;2023-02-28T06:26:13;3.90;;;3.60;;
4808;SDS011;2418;49.930;8.606;2023-02-28T06:28:39;4.15;;;3.85;;
4808;SDS011;2418;49.930;8.606;2023-02-28T06:31:06;4.65;;;4.28;;
4808;SDS011;2418;49.930;8.606;2023-02-28T06:33:32;5.70;;;3.80;;
4808;SDS011;2418;49.930;8.606;2023-02-28T06:35:58;4.83;;;4.30;;
4808;SDS011;2418;49.930;8.606;2023-02-28T06:38:24;4.10;;;3.80;;
4808;SDS011;2418;49.930;8.606;2023-02-28T06:40:56;3.90;;;3.75;;
4808;SDS011;2418;49.930;8.606;2023-02-28T06:43:23;3.58;;;3.47;;
4808;SDS011;2418;49.930;8.606;2023-02-28T06:45:50;3.90;;;3.60;;
4808;SDS011;2418;49.930;8.606;2023-02-28T06:48:16;3.35;;;3.15;;
4808;SDS011;2418;49.930;8.606;2023-02-28T06:50:42;3.03;;;3.03;;
4808;SDS011;2418;49.930;8.606;2023-02-28T06:53:08;3.57;;;3.33;;
4808;SDS011;2418;49.930;8.606;2023-02-28T06:55:33;3.47;;;3.33;;
4808;SDS011;2418;49.930;8.606;2023-02-28T06:57:59;4.05;;;3.85;;
4808;SDS011;2418;49.930;8.606;2023-02-28T07:00:25;4.20;;;3.90;;
4808;SDS011;2418;49.930;8.606;2023-02-28T07:02:50;4.20;;;3.80;;
4808;SDS011;2418;49.930;8.606;2023-02-28T07:05:18;4.20;;;4.00;;
4808;SDS011;2418;49.930;8.606;2023-02-28T07:07:44;4.37;;;3.97;;
4808;SDS011;2418;49.930;8.606;2023-02-28T07:10:11;4.25;;;3.85;;
4808;SDS011;2418;49.930;8.606;2023-02-28T07:12:38;3.30;;;3.10;;
4808;SDS011;2418;49.930;8.606;2023-02-28T07:15:04;3.93;;;3.53;;
4808;SDS011;2418;49.930;8.606;2023-02-28T07:17:30;2.60;;;2.50;;
4808;SDS011;2418;49.930;8.606;2023-02-28T07:19:56;3.03;;;2.92;;
4808;SDS011;2418;49.930;8.606;2023-02-28T07:22:22;3.67;;;3.38;;
4808;SDS011;2418;49.930;8.606;2023-02-28T07:24:48;3.70;;;2.80;;
4808;SDS011;2418;49.930;8.606;2023-02-28T07:27:13;2.80;;;2.60;;
4808;SDS011;2418;49.930;8.606;2023-02-28T07:29:48;3.72;;;3.47;;
4808;SDS011;2418;49.930;8.606;2023-02-28T07:32:15;3.60;;;3.30;;
4808;SDS011;2418;49.930;8.606;2023-02-28T07:34:41;2.97;;;2.78;;
4808;SDS011;2418;49.930;8.606;2023-02-28T07:37:06;2.80;;;2.60;;
4808;SDS011;2418;49.930;8.606;2023-02-28T07:39:32;3.30;;;3.00;;
4808;SDS011;2418;49.930;8.606;2023-02-28T07:41:58;2.65;;;2.38;;
4808;SDS011;2418;49.930;8.606;2023-02-28T07:44:24;2.63;;;2.53;;
4808;SDS011;2418;49.930;8.606;2023-02-28T07:46:50;2.97;;;2.87;;
4808;SDS011;2418;49.930;8.606;2023-02-28T07:49:18;3.17;;;3.08;;
4808;SDS011;2418;49.930;8.606;2023-02-28T07:51:44;2.87;;;2.77;;
4808;SDS011;2418;49.930;8.606;2023-02-28T07:54:11;2.80;;;2.70;;
4808;SDS011;2418;49.930;8.606;2023-02-28T07:56:37;2.13;;;2.05;;
4808;SDS011;2418;49.930;8.606;2023-02-28T07:59:02;2.80;;;2.70;;
4808;SDS011;2418;49.930;8.606;2023-02-28T08:01:28;3.60;;;3.10;;
4808;SDS011;2418;49.930;8.606;2023-02-28T08:03:54;2.85;;;2.55;;
4808;SDS011;2418;49.930;8.606;2023-02-28T08:06:23;3.38;;;3.17;;
4808;SDS011;2418;49.930;8.606;2023-02-28T08:08:49;2.70;;;2.50;;
4808;SDS011;2418;49.930;8.606;2023-02-28T08:11:16;2.63;;;2.63;;
4808;SDS011;2418;49.930;8.606;2023-02-28T08:13:43;3.00;;;2.42;;
4808;SDS011;2418;49.930;8.606;2023-02-28T08:16:09;2.92;;;2.72;;
4808;SDS011;2418;49.930;8.606;2023-02-28T08:18:35;2.90;;;2.80;;
4808;SDS011;2418;49.930;8.606;2023-02-28T08:21:08;3.50;;;3.30;;
4808;SDS011;2418;49.930;8.606;2023-02-28T08:23:34;2.90;;;2.80;;
4808;SDS011;2418;49.930;8.606;2023-02-28T08:26:00;3.13;;;3.03;;
4808;SDS011;2418;49.930;8.606;2023-02-28T08:28:26;2.72;;;2.63;;
4808;SDS011;2418;49.930;8.606;2023-02-28T08:30:52;2.92;;;2.72;;
4808;SDS011;2418;49.930;8.606;2023-02-28T08:33:19;3.67;;;2.60;;
4808;SDS011;2418;49.930;8.606;2023-02-28T08:35:44;2.30;;;2.20;;
4808;SDS011;2418;49.930;8.606;2023-02-28T08:38:11;6.05;;;2.65;;
4808;SDS011;2418;49.930;8.606;2023-02-28T08:40:37;2.87;;;2.77;;
4808;SDS011;2418;49.930;8.606;2023-02-28T08:43:03;6.40;;;2.92;;
4808;SDS011;2418;49.930;8.606;2023-02-28T08:45:29;2.33;;;2.33;;
4808;SDS011;2418;49.930;8.606;2023-02-28T08:47:54;2.53;;;2.40;;
4808;SDS011;2418;49.930;8.606;2023-02-28T08:50:21;2.72;;;2.63;;
4808;SDS011;2418;49.930;8.606;2023-02-28T08:52:47;2.97;;;2.08;;
4808;SDS011;2418;49.930;8.606;2023-02-28T08:55:12;2.50;;;2.43;;
4808;SDS011;2418;49.930;8.606;2023-02-28T08:57:38;3.50;;;3.20;;
4808;SDS011;2418;49.930;8.606;2023-02-28T09:00:04;2.50;;;2.30;;
4808;SDS011;2418;49.930;8.606;2023-02-28T09:02:30;2.30;;;2.20;;
4808;SDS011;2418;49.930;8.606;2023-02-28T09:04:57;2.78;;;2.67;;
4808;SDS011;2418;49.930;8.606;2023-02-28T09:07:23;2.75;;;2.65;;
4808;SDS011;2418;49.930;8.606;2023-02-28T09:09:49;3.60;;;3.40;;
4808;SDS011;2418;49.930;8.606;2023-02-28T09:12:26;2.42;;;2.33;;
4808;SDS011;2418;49.930;8.606;2023-02-28T09:14:56;2.30;;;2.20;;
4808;SDS011;2418;49.930;8.606;2023-02-28T09:17:22;2.90;;;2.80;;
4808;SDS011;2418;49.930;8.606;2023-02-28T09:19:48;3.40;;;3.20;;
4808;SDS011;2418;49.930;8.606;2023-02-28T09:22:14;2.03;;;1.92;;
4808;SDS011;2418;49.930;8.606;2023-02-28T09:24:40;3.20;;;3.10;;
4808;SDS011;2418;49.930;8.606;2023-02-28T09:27:06;3.00;;;2.90;;
4808;SDS011;2418;49.930;8.606;2023-02-28T09:29:32;3.05;;;2.95;;
4808;SDS011;2418;49.930;8.606;2023-02-28T09:31:59;4.00;;;2.83;;
4808;SDS011;2418;49.930;8.606;2023-02-28T09:34:25;3.50;;;3.30;;
4808;SDS011;2418;49.930;8.606;2023-02-28T09:36:52;4.10;;;3.67;;
4808;SDS011;2418;49.930;8.606;2023-02-28T09:39:20;3.50;;;3.20;;
4808;SDS011;2418;49.930;8.606;2023-02-28T09:41:47;3.30;;;3.20;;
4808;SDS011;2418;49.930;8.606;2023-02-28T09:44:35;5.22;;;3.55;;
4808;SDS011;2418;49.930;8.606;2023-02-28T09:49:42;3.40;;;3.10;;
4808;SDS011;2418;49.930;8.606;2023-02-28T09:52:16;3.90;;;3.50;;
4808;SDS011;2418;49.930;8.606;2023-02-28T09:54:49;5.63;;;3.55;;
4808;SDS011;2418;49.930;8.606;2023-02-28T09:57:17;6.05;;;4.00;;
4808;SDS011;2418;49.930;8.606;2023-02-28T10:05:14;4.15;;;3.85;;
4808;SDS011;2418;49.930;8.606;2023-02-28T10:10:21;7.10;;;3.60;;
4808;SDS011;2418;49.930;8.606;2023-02-28T10:12:53;3.28;;;3.17;;
4808;SDS011;2418;49.930;8.606;2023-02-28T10:15:21;3.97;;;3.77;;
4808;SDS011;2418;49.930;8.606;2023-02-28T10:17:48;3.47;;;3.33;;
4808;SDS011;2418;49.930;8.606;2023-02-28T10:20:23;14.50;;;4.53;;
4808;SDS011;2418;49.930;8.606;2023-02-28T10:23:04;13.30;;;4.43;;
4808;SDS011;2418;49.930;8.606;2023-02-28T10:25:32;8.13;;;3.80;;
4808;SDS011;2418;49.930;8.606;2023-02-28T10:28:01;4.40;;;4.10;;
4808;SDS011;2418;49.930;8.606;2023-02-28T10:30:37;7.60;;;3.80;;
4808;SDS011;2418;49.930;8.606;2023-02-28T10:33:08;3.67;;;3.58;;
4808;SDS011;2418;49.930;8.606;2023-02-28T10:35:53;4.25;;;4.00;;
4808;SDS011;2418;49.930;8.606;2023-02-28T10:38:32;3.83;;;3.63;;
4808;SDS011;2418;49.930;8.606;2023-02-28T10:41:08;3.77;;;3.67;;
4808;SDS011;2418;49.930;8.606;2023-02-28T10:43:42;2.72;;;2.63;;
4808;SDS011;2418;49.930;8.606;2023-02-28T10:51:02;4.30;;;4.05;;
4808;SDS011;2418;49.930;8.606;2023-02-28T11:01:35;3.20;;;3.00;;
4808;SDS011;2418;49.930;8.606;2023-02-28T11:04:04;3.00;;;2.90;;
4808;SDS011;2418;49.930;8.606;2023-02-28T11:06:42;2.63;;;2.53;;
4808;SDS011;2418;49.930;8.606;2023-02-28T11:09:18;4.30;;;4.10;;
4808;SDS011;2418;49.930;8.606;2023-02-28T11:11:47;4.32;;;4.03;;
4808;SDS011;2418;49.930;8.606;2023-02-28T11:14:28;4.23;;;4.00;;
4808;SDS011;2418;49.930;8.606;2023-02-28T11:16:56;4.70;;;4.40;;
4808;SDS011;2418;49.930;8.606;2023-02-28T11:19:37;4.38;;;4.18;;
4808;SDS011;2418;49.930;8.606;2023-02-28T11:22:09;4.40;;;4.20;;
4808;SDS011;2418;49.930;8.606;2023-02-28T11:24:42;3.00;;;2.90;;
4808;SDS011;2418;49.930;8.606;2023-02-28T11:32:50;2.90;;;2.70;;
4808;SDS011;2418;49.930;8.606;2023-02-28T11:35:36;3.10;;;3.00;;
4808;SDS011;2418;49.930;8.606;2023-02-28T11:38:05;4.90;;;4.50;;
4808;SDS011;2418;49.930;8.606;2023-02-28T11:46:34;4.57;;;4.27;;
4808;SDS011;2418;49.930;8.606;2023-02-28T11:54:54;5.70;;;5.30;;
4808;SDS011;2418;49.930;8.606;2023-02-28T12:02:57;5.57;;;5.18;;
4808;SDS011;2418;49.930;8.606;2023-02-28T12:05:34;4.32;;;4.13;;
4808;SDS011;2418;49.930;8.606;2023-02-28T12:16:08;5.55;;;4.70;;
4808;SDS011;2418;49.930;8.606;2023-02-28T12:21:25;5.45;;;4.95;;
4808;SDS011;2418;49.930;8.606;2023-02-28T12:26:41;4.60;;;4.30;;
4808;SDS011;2418;49.930;8.606;2023-02-28T12:31:49;4.43;;;3.83;;
4808;SDS011;2418;49.930;8.606;2023-02-28T12:34:21;4.10;;;3.90;;
4808;SDS011;2418;49.930;8.606;2023-02-28T12:36:49;4.60;;;4.30;;
4808;SDS011;2418;49.930;8.606;2023-02-28T12:39:18;5.30;;;5.00;;
4808;SDS011;2418;49.930;8.606;2023-02-28T12:42:05;3.58;;;3.47;;
4808;SDS011;2418;49.930;8.606;2023-02-28T12:44:40;5.53;;;5.22;;
4808;SDS011;2418;49.930;8.606;2023-02-28T12:47:13;4.00;;;3.90;;
4808;SDS011;2418;49.930;8.606;2023-02-28T12:49:45;4.90;;;4.60;;
4808;SDS011;2418;49.930;8.606;2023-02-28T12:52:13;4.82;;;4.60;;
4808;SDS011;2418;49.930;8.606;2023-02-28T12:54:47;6.10;;;5.00;;
4808;SDS011;2418;49.930;8.606;2023-02-28T12:57:18;5.20;;;4.90;;
4808;SDS011;2418;49.930;8.606;2023-02-28T12:59:59;5.80;;;5.30;;
4808;SDS011;2418;49.930;8.606;2023-02-28T13:10:37;7.28;;;4.70;;
4808;SDS011;2418;49.930;8.606;2023-02-28T13:13:03;5.20;;;5.00;;
4808;SDS011;2418;49.930;8.606;2023-02-28T13:15:29;5.70;;;5.30;;
4808;SDS011;2418;49.930;8.606;2023-02-28T13:17:57;5.22;;;4.93;;
4808;SDS011;2418;49.930;8.606;2023-02-28T13:20:37;4.40;;;4.10;;
4808;SDS011;2418;49.930;8.606;2023-02-28T13:26:03;5.60;;;5.10;;
4808;SDS011;2418;49.930;8.606;2023-02-28T13:31:13;5.60;;;5.20;;
4808;SDS011;2418;49.930;8.606;2023-02-28T13:36:32;6.05;;;5.65;;
4808;SDS011;2418;49.930;8.606;2023-02-28T13:39:01;5.68;;;5.30;;
4808;SDS011;2418;49.930;8.606;2023-02-28T13:44:11;6.25;;;5.75;;
4808;SDS011;2418;49.930;8.606;2023-02-28T13:51:46;6.13;;;4.72;;
4808;SDS011;2418;49.930;8.606;2023-02-28T14:09:01;7.90;;;6.30;;
4808;SDS011;2418;49.930;8.606;2023-02-28T14:11:33;6.18;;;5.70;;
4808;SDS011;2418;49.930;8.606;2023-02-28T14:14:01;5.38;;;4.97;;
4808;SDS011;2418;49.930;8.606;2023-02-28T14:16:39;5.68;;;5.38;;
4808;SDS011;2418;49.930;8.606;2023-02-28T14:19:16;5.72;;;5.32;;
4808;SDS011;2418;49.930;8.606;2023-02-28T14:21:49;5.80;;;5.30;;
4808;SDS011;2418;49.930;8.606;2023-02-28T14:26:58;5.75;;;5.45;;
4808;SDS011;2418;49.930;8.606;2023-02-28T14:32:32;8.60;;;5.30;;
4808;SDS011;2418;49.930;8.606;2023-02-28T14:38:00;5.60;;;5.10;;
4808;SDS011;2418;49.930;8.606;2023-02-28T14:40:33;5.87;;;5.37;;
4808;SDS011;2418;49.930;8.606;2023-02-28T14:43:02;6.00;;;5.50;;
4808;SDS011;2418;49.930;8.606;2023-02-28T14:45:29;6.55;;;5.00;;
4808;SDS011;2418;49.930;8.606;2023-02-28T14:47:55;5.68;;;5.28;;
4808;SDS011;2418;49.930;8.606;2023-02-28T14:50:23;6.05;;;5.75;;
4808;SDS011;2418;49.930;8.606;2023-02-28T14:52:55;5.00;;;4.70;;
4808;SDS011;2418;49.930;8.606;2023-02-28T14:55:25;6.00;;;5.60;;
4808;SDS011;2418;49.930;8.606;2023-02-28T14:57:53;6.13;;;5.63;;
4808;SDS011;2418;49.930;8.606;2023-02-28T15:00:24;6.50;;;6.05;;
4808;SDS011;2418;49.930;8.606;2023-02-28T15:02:52;6.80;;;6.20;;
4808;SDS011;2418;49.930;8.606;2023-02-28T15:05:34;5.93;;;5.53;;
4808;SDS011;2418;49.930;8.606;2023-02-28T15:08:01;5.72;;;5.28;;
4808;SDS011;2418;49.930;8.606;2023-02-28T15:10:36;6.25;;;5.85;;
4808;SDS011;2418;49.930;8.606;2023-02-28T15:13:07;6.55;;;5.80;;
4808;SDS011;2418;49.930;8.606;2023-02-28T15:20:49;6.45;;;5.85;;
4808;SDS011;2418;49.930;8.606;2023-02-28T15:23:15;5.55;;;5.15;;
4808;SDS011;2418;49.930;8.606;2023-02-28T15:25:43;5.70;;;5.20;;
4808;SDS011;2418;49.930;8.606;2023-02-28T15:28:11;5.80;;;5.30;;
4808;SDS011;2418;49.930;8.606;2023-02-28T15:30:49;5.47;;;5.13;;
4808;SDS011;2418;49.930;8.606;2023-02-28T15:35:41;5.00;;;4.60;;
4808;SDS011;2418;49.930;8.606;2023-02-28T15:38:16;5.53;;;4.95;;
4808;SDS011;2418;49.930;8.606;2023-02-28T15:40:52;5.68;;;5.38;;
4808;SDS011;2418;49.930;8.606;2023-02-28T15:43:29;6.32;;;5.70;;
4808;SDS011;2418;49.930;8.606;2023-02-28T15:48:31;5.32;;;5.03;;
4808;SDS011;2418;49.930;8.606;2023-02-28T15:51:18;5.28;;;4.68;;
4808;SDS011;2418;49.930;8.606;2023-02-28T15:58:50;6.10;;;5.40;;
4808;SDS011;2418;49.930;8.606;2023-02-28T16:01:21;5.80;;;5.20;;
4808;SDS011;2418;49.930;8.606;2023-02-28T16:03:51;6.20;;;5.80;;
4808;SDS011;2418;49.930;8.606;2023-02-28T16:09:12;7.60;;;5.70;;
4808;SDS011;2418;49.930;8.606;2023-02-28T16:11:45;8.73;;;5.68;;
4808;SDS011;2418;49.930;8.606;2023-02-28T16:14:17;7.60;;;5.93;;
4808;SDS011;2418;49.930;8.606;2023-02-28T16:16:46;6.65;;;6.15;;
4808;SDS011;2418;49.930;8.606;2023-02-28T16:19:12;5.43;;;5.13;;
4808;SDS011;2418;49.930;8.606;2023-02-28T16:21:38;8.75;;;7.15;;
4808;SDS011;2418;49.930;8.606;2023-02-28T16:24:04;6.68;;;6.18;;
4808;SDS011;2418;49.930;8.606;2023-02-28T16:26:32;6.63;;;6.10;;
4808;SDS011;2418;49.930;8.606;2023-02-28T16:28:59;5.78;;;5.28;;
4808;SDS011;2418;49.930;8.606;2023-02-28T16:31:26;7.80;;;7.10;;
4808;SDS011;2418;49.930;8.606;2023-02-28T16:33:52;7.30;;;6.80;;
4808;SDS011;2418;49.930;8.606;2023-02-28T16:36:22;9.88;;;8.63;;
4808;SDS011;2418;49.930;8.606;2023-02-28T16:38:53;6.75;;;6.15;;
4808;SDS011;2418;49.930;8.606;2023-02-28T16:41:20;8.07;;;6.50;;
4808;SDS011;2418;49.930;8.606;2023-02-28T16:43:47;7.80;;;7.10;;
4808;SDS011;2418;49.930;8.606;2023-02-28T16:46:16;7.28;;;6.57;;
4808;SDS011;2418;49.930;8.606;2023-02-28T16:48:42;7.35;;;6.65;;
4808;SDS011;2418;49.930;8.606;2023-02-28T16:51:13;6.90;;;6.40;;
4808;SDS011;2418;49.930;8.606;2023-02-28T16:53:39;6.93;;;6.32;;
4808;SDS011;2418;49.930;8.606;2023-02-28T16:56:05;7.90;;;7.20;;
4808;SDS011;2418;49.930;8.606;2023-02-28T16:58:31;9.00;;;8.30;;
4808;SDS011;2418;49.930;8.606;2023-02-28T17:01:00;8.45;;;7.75;;
4808;SDS011;2418;49.930;8.606;2023-02-28T17:03:27;7.38;;;6.78;;
4808;SDS011;2418;49.930;8.606;2023-02-28T17:05:55;8.40;;;6.90;;
4808;SDS011;2418;49.930;8.606;2023-02-28T17:08:21;6.75;;;6.15;;
4808;SDS011;2418;49.930;8.606;2023-02-28T17:10:46;7.50;;;6.80;;
4808;SDS011;2418;49.930;8.606;2023-02-28T17:13:12;7.88;;;7.10;;
4808;SDS011;2418;49.930;8.606;2023-02-28T17:15:38;8.57;;;6.45;;
4808;SDS011;2418;49.930;8.606;2023-02-28T17:18:05;7.68;;;6.63;;
4808;SDS011;2418;49.930;8.606;2023-02-28T17:20:33;7.90;;;7.20;;
4808;SDS011;2418;49.930;8.606;2023-02-28T17:22:59;9.10;;;7.97;;
4808;SDS011;2418;49.930;8.606;2023-02-28T17:25:25;7.28;;;6.57;;
4808;SDS011;2418;49.930;8.606;2023-02-28T17:27:51;7.95;;;7.15;;
4808;SDS011;2418;49.930;8.606;2023-02-28T17:30:23;9.30;;;7.32;;
4808;SDS011;2418;49.930;8.606;2023-02-28T17:32:52;7.97;;;7.30;;
4808;SDS011;2418;49.930;8.606;2023-02-28T17:35:18;8.00;;;7.40;;
4808;SDS011;2418;49.930;8.606;2023-02-28T17:37:44;9.07;;;8.18;;
4808;SDS011;2418;49.930;8.606;2023-02-28T17:40:15;10.18;;;9.10;;
4808;SDS011;2418;49.930;8.606;2023-02-28T17:42:44;15.95;;;9.48;;
4808;SDS011;2418;49.930;8.606;2023-02-28T17:45:10;13.23;;;11.23;;
4808;SDS011;2418;49.930;8.606;2023-02-28T17:47:38;18.38;;;13.52;;
4808;SDS011;2418;49.930;8.606;2023-02-28T17:50:04;19.25;;;13.23;;
4808;SDS011;2418;49.930;8.606;2023-02-28T17:52:31;11.73;;;10.57;;
4808;SDS011;2418;49.930;8.606;2023-02-28T17:55:02;15.65;;;11.77;;
4808;SDS011;2418;49.930;8.606;2023-02-28T17:57:28;10.90;;;9.25;;
4808;SDS011;2418;49.930;8.606;2023-02-28T17:59:53;10.57;;;9.57;;